sensor_id;sensor_type;location;lat;lon;timestamp;P1;durP1;ratioP1;P2;durP2;ratioP2
37645;SDS011;23489;49.600;6.138;2023-02-28T00:00:36;2.07;;;1.33;;
37645;SDS011;23489;49.600;6.138;2023-02-28T00:03:02;1.53;;;1.20;;
37645;SDS011;23489;49.600;6.138;2023-02-28T00:05:28;2.40;;;1.30;;
37645;SDS011;23489;49.600;6.138;2023-02-28T00:07:54;1.20;;;1.10;;
37645;SDS011;23489;49.600;6.138;2023-02-28T00:10:21;1.60;;;1.40;;
37645;SDS011;23489;49.600;6.138;2023-02-28T00:12:51;1.50;;;1.40;;
37645;SDS011;23489;49.600;6.138;2023-02-28T00:15:18;1.20;;;1.10;;
37645;SDS011;23489;49.600;6.138;2023-02-28T00:17:44;1.40;;;1.30;;
37645;SDS011;23489;49.600;6.138;2023-02-28T00:20:10;1.60;;;1.43;;
37645;SDS011;23489;49.600;6.138;2023-02-28T00:22:37;1.27;;;1.10;;
37645;SDS011;23489;49.600;6.138;2023-02-28T00:25:05;2.13;;;1.30;;
37645;SDS011;23489;49.600;6.138;2023-02-28T00:27:32;2.17;;;1.53;;
37645;SDS011;23489;49.600;6.138;2023-02-28T00:30:00;1.67;;;1.57;;
37645;SDS011;23489;49.600;6.138;2023-02-28T00:32:26;1.40;;;1.30;;
37645;SDS011;23489;49.600;6.138;2023-02-28T00:34:52;1.33;;;1.23;;
37645;SDS011;23489;49.600;6.138;2023-02-28T00:37:17;2.33;;;2.13;;
37645;SDS011;23489;49.600;6.138;2023-02-28T00:39:43;2.23;;;1.50;;
37645;SDS011;23489;49.600;6.138;2023-02-28T00:42:08;1.83;;;1.60;;
37645;SDS011;23489;49.600;6.138;2023-02-28T00:44:34;1.73;;;1.53;;
37645;SDS011;23489;49.600;6.138;2023-02-28T00:47:00;1.70;;;1.50;;
37645;SDS011;23489;49.600;6.138;2023-02-28T00:49:26;1.30;;;1.20;;
37645;SDS011;23489;49.600;6.138;2023-02-28T00:51:52;1.53;;;1.40;;
37645;SDS011;23489;49.600;6.138;2023-02-28T00:54:19;1.57;;;1.43;;
37645;SDS011;23489;49.600;6.138;2023-02-28T00:56:46;2.33;;;1.10;;
37645;SDS011;23489;49.600;6.138;2023-02-28T00:59:12;1.40;;;1.30;;
37645;SDS011;23489;49.600;6.138;2023-02-28T01:01:38;1.60;;;1.50;;
37645;SDS011;23489;49.600;6.138;2023-02-28T01:04:04;2.17;;;1.33;;
37645;SDS011;23489;49.600;6.138;2023-02-28T01:06:31;1.80;;;1.30;;
37645;SDS011;23489;49.600;6.138;2023-02-28T01:08:57;2.90;;;1.50;;
37645;SDS011;23489;49.600;6.138;2023-02-28T01:11:23;3.17;;;1.60;;
37645;SDS011;23489;49.600;6.138;2023-02-28T01:13:51;1.90;;;1.40;;
37645;SDS011;23489;49.600;6.138;2023-02-28T01:16:17;1.53;;;1.40;;
37645;SDS011;23489;49.600;6.138;2023-02-28T01:18:44;2.20;;;1.50;;
37645;SDS011;23489;49.600;6.138;2023-02-28T01:21:11;1.73;;;1.40;;
37645;SDS011;23489;49.600;6.138;2023-02-28T01:23:40;2.13;;;1.67;;
37645;SDS011;23489;49.600;6.138;2023-02-28T01:26:18;1.40;;;1.30;;
37645;SDS011;23489;49.600;6.138;2023-02-28T01:28:45;1.50;;;1.40;;
37645;SDS011;23489;49.600;6.138;2023-02-28T01:31:12;2.87;;;1.53;;
37645;SDS011;23489;49.600;6.138;2023-02-28T01:33:39;2.90;;;1.20;;
37645;SDS011;23489;49.600;6.138;2023-02-28T01:36:12;1.87;;;1.43;;
37645;SDS011;23489;49.600;6.138;2023-02-28T01:38:41;1.77;;;1.57;;
37645;SDS011;23489;49.600;6.138;2023-02-28T01:41:07;2.20;;;1.60;;
37645;SDS011;23489;49.600;6.138;2023-02-28T01:43:52;2.20;;;1.77;;
37645;SDS011;23489;49.600;6.138;2023-02-28T01:46:18;1.80;;;1.53;;
37645;SDS011;23489;49.600;6.138;2023-02-28T01:48:53;1.47;;;1.37;;
37645;SDS011;23489;49.600;6.138;2023-02-28T01:51:35;1.77;;;1.67;;
37645;SDS011;23489;49.600;6.138;2023-02-28T01:54:29;1.87;;;1.50;;
37645;SDS011;23489;49.600;6.138;2023-02-28T01:57:04;2.53;;;1.40;;
37645;SDS011;23489;49.600;6.138;2023-02-28T01:59:37;1.70;;;1.60;;
37645;SDS011;23489;49.600;6.138;2023-02-28T02:02:10;2.70;;;1.70;;
37645;SDS011;23489;49.600;6.138;2023-02-28T02:04:37;2.20;;;1.60;;
37645;SDS011;23489;49.600;6.138;2023-02-28T02:07:12;1.80;;;1.70;;
37645;SDS011;23489;49.600;6.138;2023-02-28T02:09:43;1.93;;;1.50;;
37645;SDS011;23489;49.600;6.138;2023-02-28T02:12:35;3.00;;;1.60;;
37645;SDS011;23489;49.600;6.138;2023-02-28T02:15:21;2.17;;;1.43;;
37645;SDS011;23489;49.600;6.138;2023-02-28T02:17:57;2.37;;;1.70;;
37645;SDS011;23489;49.600;6.138;2023-02-28T02:23:27;2.77;;;1.57;;
37645;SDS011;23489;49.600;6.138;2023-02-28T02:40:10;2.50;;;1.90;;
37645;SDS011;23489;49.600;6.138;2023-02-28T02:47:52;2.47;;;1.73;;
37645;SDS011;23489;49.600;6.138;2023-02-28T02:50:26;2.07;;;1.87;;
37645;SDS011;23489;49.600;6.138;2023-02-28T02:52:59;2.43;;;2.00;;
37645;SDS011;23489;49.600;6.138;2023-02-28T02:55:29;2.30;;;1.67;;
37645;SDS011;23489;49.600;6.138;2023-02-28T02:58:04;1.93;;;1.70;;
37645;SDS011;23489;49.600;6.138;2023-02-28T03:00:42;2.40;;;1.80;;
37645;SDS011;23489;49.600;6.138;2023-02-28T03:03:12;3.80;;;1.87;;
37645;SDS011;23489;49.600;6.138;2023-02-28T03:05:46;2.70;;;2.20;;
37645;SDS011;23489;49.600;6.138;2023-02-28T03:08:14;3.17;;;1.70;;
37645;SDS011;23489;49.600;6.138;2023-02-28T03:10:41;2.60;;;2.20;;
37645;SDS011;23489;49.600;6.138;2023-02-28T03:13:23;2.67;;;1.73;;
37645;SDS011;23489;49.600;6.138;2023-02-28T03:23:49;3.07;;;2.00;;
37645;SDS011;23489;49.600;6.138;2023-02-28T03:26:25;1.70;;;1.60;;
37645;SDS011;23489;49.600;6.138;2023-02-28T03:28:54;2.80;;;1.90;;
37645;SDS011;23489;49.600;6.138;2023-02-28T03:31:37;2.07;;;1.80;;
37645;SDS011;23489;49.600;6.138;2023-02-28T03:34:10;3.93;;;2.03;;
37645;SDS011;23489;49.600;6.138;2023-02-28T03:36:59;3.00;;;2.00;;
37645;SDS011;23489;49.600;6.138;2023-02-28T03:40:33;1.83;;;1.73;;
37645;SDS011;23489;49.600;6.138;2023-02-28T03:42:31;3.57;;;2.27;;
37645;SDS011;23489;49.600;6.138;2023-02-28T03:50:24;2.97;;;2.03;;
37645;SDS011;23489;49.600;6.138;2023-02-28T03:53:15;2.77;;;2.00;;
37645;SDS011;23489;49.600;6.138;2023-02-28T03:55:44;2.50;;;1.70;;
37645;SDS011;23489;49.600;6.138;2023-02-28T03:58:22;2.23;;;2.03;;
37645;SDS011;23489;49.600;6.138;2023-02-28T04:00:56;2.67;;;1.80;;
37645;SDS011;23489;49.600;6.138;2023-02-28T04:03:33;3.13;;;2.43;;
37645;SDS011;23489;49.600;6.138;2023-02-28T04:06:03;2.80;;;2.17;;
37645;SDS011;23489;49.600;6.138;2023-02-28T04:08:31;3.10;;;2.53;;
37645;SDS011;23489;49.600;6.138;2023-02-28T04:11:00;2.40;;;2.10;;
37645;SDS011;23489;49.600;6.138;2023-02-28T04:13:44;2.87;;;2.30;;
37645;SDS011;23489;49.600;6.138;2023-02-28T04:16:10;3.43;;;2.77;;
37645;SDS011;23489;49.600;6.138;2023-02-28T04:18:40;4.00;;;2.70;;
37645;SDS011;23489;49.600;6.138;2023-02-28T04:21:08;4.90;;;2.80;;
37645;SDS011;23489;49.600;6.138;2023-02-28T04:23:35;5.70;;;2.53;;
37645;SDS011;23489;49.600;6.138;2023-02-28T04:26:00;5.50;;;3.23;;
37645;SDS011;23489;49.600;6.138;2023-02-28T04:28:26;4.10;;;2.90;;
37645;SDS011;23489;49.600;6.138;2023-02-28T04:30:55;3.23;;;2.90;;
37645;SDS011;23489;49.600;6.138;2023-02-28T04:33:23;4.23;;;3.17;;
37645;SDS011;23489;49.600;6.138;2023-02-28T04:35:57;3.57;;;2.73;;
37645;SDS011;23489;49.600;6.138;2023-02-28T04:38:28;4.93;;;3.30;;
37645;SDS011;23489;49.600;6.138;2023-02-28T04:40:56;3.70;;;3.20;;
37645;SDS011;23489;49.600;6.138;2023-02-28T04:43:25;4.30;;;2.97;;
37645;SDS011;23489;49.600;6.138;2023-02-28T04:45:52;5.67;;;3.67;;
37645;SDS011;23489;49.600;6.138;2023-02-28T04:48:22;6.20;;;3.23;;
37645;SDS011;23489;49.600;6.138;2023-02-28T04:50:52;9.00;;;3.83;;
37645;SDS011;23489;49.600;6.138;2023-02-28T04:53:18;7.00;;;4.00;;
37645;SDS011;23489;49.600;6.138;2023-02-28T04:55:43;5.53;;;4.00;;
37645;SDS011;23489;49.600;6.138;2023-02-28T04:58:10;8.77;;;3.70;;
37645;SDS011;23489;49.600;6.138;2023-02-28T05:00:35;5.37;;;3.70;;
37645;SDS011;23489;49.600;6.138;2023-02-28T05:03:01;6.87;;;3.70;;
37645;SDS011;23489;49.600;6.138;2023-02-28T05:05:27;8.40;;;4.50;;
37645;SDS011;23489;49.600;6.138;2023-02-28T05:07:53;6.33;;;3.87;;
37645;SDS011;23489;49.600;6.138;2023-02-28T05:10:20;5.27;;;3.67;;
37645;SDS011;23489;49.600;6.138;2023-02-28T05:12:49;5.30;;;4.00;;
37645;SDS011;23489;49.600;6.138;2023-02-28T05:15:15;6.87;;;4.27;;
37645;SDS011;23489;49.600;6.138;2023-02-28T05:17:41;5.90;;;3.90;;
37645;SDS011;23489;49.600;6.138;2023-02-28T05:20:08;7.13;;;4.40;;
37645;SDS011;23489;49.600;6.138;2023-02-28T05:22:36;10.97;;;4.47;;
37645;SDS011;23489;49.600;6.138;2023-02-28T05:25:02;6.60;;;4.67;;
37645;SDS011;23489;49.600;6.138;2023-02-28T05:27:29;6.03;;;4.23;;
37645;SDS011;23489;49.600;6.138;2023-02-28T05:29:55;8.93;;;4.70;;
37645;SDS011;23489;49.600;6.138;2023-02-28T05:32:21;8.23;;;4.87;;
37645;SDS011;23489;49.600;6.138;2023-02-28T05:34:47;8.00;;;4.90;;
37645;SDS011;23489;49.600;6.138;2023-02-28T05:37:12;5.47;;;4.33;;
37645;SDS011;23489;49.600;6.138;2023-02-28T05:39:39;8.03;;;4.80;;
37645;SDS011;23489;49.600;6.138;2023-02-28T05:42:05;7.83;;;4.70;;
37645;SDS011;23489;49.600;6.138;2023-02-28T05:44:31;6.20;;;4.63;;
37645;SDS011;23489;49.600;6.138;2023-02-28T05:46:57;5.63;;;4.50;;
37645;SDS011;23489;49.600;6.138;2023-02-28T05:49:22;8.17;;;4.63;;
37645;SDS011;23489;49.600;6.138;2023-02-28T05:51:48;7.17;;;4.70;;
37645;SDS011;23489;49.600;6.138;2023-02-28T05:54:14;7.57;;;4.97;;
37645;SDS011;23489;49.600;6.138;2023-02-28T05:56:40;8.00;;;4.40;;
37645;SDS011;23489;49.600;6.138;2023-02-28T05:59:09;7.00;;;4.87;;
37645;SDS011;23489;49.600;6.138;2023-02-28T06:01:36;8.17;;;5.00;;
37645;SDS011;23489;49.600;6.138;2023-02-28T06:04:07;7.03;;;5.03;;
37645;SDS011;23489;49.600;6.138;2023-02-28T06:06:34;9.13;;;4.90;;
37645;SDS011;23489;49.600;6.138;2023-02-28T06:09:01;13.50;;;5.57;;
37645;SDS011;23489;49.600;6.138;2023-02-28T06:11:27;8.37;;;4.80;;
37645;SDS011;23489;49.600;6.138;2023-02-28T06:13:56;9.17;;;5.33;;
37645;SDS011;23489;49.600;6.138;2023-02-28T06:16:23;9.50;;;4.90;;
37645;SDS011;23489;49.600;6.138;2023-02-28T06:18:49;7.40;;;5.10;;
37645;SDS011;23489;49.600;6.138;2023-02-28T06:21:14;8.00;;;5.27;;
37645;SDS011;23489;49.600;6.138;2023-02-28T06:23:40;11.13;;;5.13;;
37645;SDS011;23489;49.600;6.138;2023-02-28T06:26:06;6.63;;;5.07;;
37645;SDS011;23489;49.600;6.138;2023-02-28T06:28:31;7.37;;;5.43;;
37645;SDS011;23489;49.600;6.138;2023-02-28T06:30:57;9.17;;;5.10;;
37645;SDS011;23489;49.600;6.138;2023-02-28T06:33:23;6.97;;;4.97;;
37645;SDS011;23489;49.600;6.138;2023-02-28T06:35:51;8.13;;;4.93;;
37645;SDS011;23489;49.600;6.138;2023-02-28T06:38:18;6.50;;;4.67;;
37645;SDS011;23489;49.600;6.138;2023-02-28T06:40:44;8.23;;;5.43;;
37645;SDS011;23489;49.600;6.138;2023-02-28T06:43:17;11.03;;;5.60;;
37645;SDS011;23489;49.600;6.138;2023-02-28T06:45:43;7.53;;;5.13;;
37645;SDS011;23489;49.600;6.138;2023-02-28T06:48:09;7.87;;;5.37;;
37645;SDS011;23489;49.600;6.138;2023-02-28T06:50:35;6.97;;;4.63;;
37645;SDS011;23489;49.600;6.138;2023-02-28T06:53:02;7.67;;;5.10;;
37645;SDS011;23489;49.600;6.138;2023-02-28T06:55:27;7.47;;;5.33;;
37645;SDS011;23489;49.600;6.138;2023-02-28T06:57:53;7.20;;;4.77;;
37645;SDS011;23489;49.600;6.138;2023-02-28T07:00:20;8.30;;;4.87;;
37645;SDS011;23489;49.600;6.138;2023-02-28T07:02:46;7.37;;;5.27;;
37645;SDS011;23489;49.600;6.138;2023-02-28T07:05:12;8.87;;;5.97;;
37645;SDS011;23489;49.600;6.138;2023-02-28T07:07:38;8.37;;;5.60;;
37645;SDS011;23489;49.600;6.138;2023-02-28T07:10:07;6.30;;;4.67;;
37645;SDS011;23489;49.600;6.138;2023-02-28T07:12:34;9.27;;;5.10;;
37645;SDS011;23489;49.600;6.138;2023-02-28T07:15:01;7.00;;;4.53;;
37645;SDS011;23489;49.600;6.138;2023-02-28T07:17:26;6.93;;;4.93;;
37645;SDS011;23489;49.600;6.138;2023-02-28T07:19:52;6.87;;;4.73;;
37645;SDS011;23489;49.600;6.138;2023-02-28T07:22:17;7.33;;;4.33;;
37645;SDS011;23489;49.600;6.138;2023-02-28T07:24:43;8.17;;;4.70;;
37645;SDS011;23489;49.600;6.138;2023-02-28T07:27:09;6.30;;;4.60;;
37645;SDS011;23489;49.600;6.138;2023-02-28T07:29:34;7.07;;;4.57;;
37645;SDS011;23489;49.600;6.138;2023-02-28T07:32:00;8.77;;;4.60;;
37645;SDS011;23489;49.600;6.138;2023-02-28T07:34:25;5.13;;;4.07;;
37645;SDS011;23489;49.600;6.138;2023-02-28T07:36:54;5.50;;;4.30;;
37645;SDS011;23489;49.600;6.138;2023-02-28T07:39:21;8.73;;;4.57;;
37645;SDS011;23489;49.600;6.138;2023-02-28T07:41:46;5.60;;;4.40;;
37645;SDS011;23489;49.600;6.138;2023-02-28T07:44:12;7.67;;;4.70;;
37645;SDS011;23489;49.600;6.138;2023-02-28T07:46:38;6.27;;;4.43;;
37645;SDS011;23489;49.600;6.138;2023-02-28T07:49:04;9.80;;;4.30;;
37645;SDS011;23489;49.600;6.138;2023-02-28T07:51:30;6.50;;;4.10;;
37645;SDS011;23489;49.600;6.138;2023-02-28T07:53:56;6.63;;;4.27;;
37645;SDS011;23489;49.600;6.138;2023-02-28T07:56:22;4.50;;;3.70;;
37645;SDS011;23489;49.600;6.138;2023-02-28T07:58:48;6.20;;;3.75;;
37645;SDS011;23489;49.600;6.138;2023-02-28T08:01:14;4.03;;;3.63;;
37645;SDS011;23489;49.600;6.138;2023-02-28T08:03:40;3.90;;;3.50;;
37645;SDS011;23489;49.600;6.138;2023-02-28T08:06:06;5.85;;;3.47;;
37645;SDS011;23489;49.600;6.138;2023-02-28T08:08:33;3.78;;;3.35;;
37645;SDS011;23489;49.600;6.138;2023-02-28T08:11:02;5.13;;;3.25;;
37645;SDS011;23489;49.600;6.138;2023-02-28T08:13:28;4.43;;;3.83;;
37645;SDS011;23489;49.600;6.138;2023-02-28T08:15:55;4.20;;;3.55;;
37645;SDS011;23489;49.600;6.138;2023-02-28T08:18:21;5.05;;;3.50;;
37645;SDS011;23489;49.600;6.138;2023-02-28T08:20:47;5.63;;;3.35;;
37645;SDS011;23489;49.600;6.138;2023-02-28T08:23:13;3.83;;;3.42;;
37645;SDS011;23489;49.600;6.138;2023-02-28T08:25:39;4.90;;;3.30;;
37645;SDS011;23489;49.600;6.138;2023-02-28T08:28:05;5.85;;;3.35;;
37645;SDS011;23489;49.600;6.138;2023-02-28T08:30:31;3.75;;;3.45;;
37645;SDS011;23489;49.600;6.138;2023-02-28T08:32:56;4.93;;;3.53;;
37645;SDS011;23489;49.600;6.138;2023-02-28T08:35:22;4.22;;;3.38;;
37645;SDS011;23489;49.600;6.138;2023-02-28T08:37:48;4.82;;;3.58;;
37645;SDS011;23489;49.600;6.138;2023-02-28T08:40:15;5.40;;;3.60;;
37645;SDS011;23489;49.600;6.138;2023-02-28T08:42:44;4.88;;;3.40;;
37645;SDS011;23489;49.600;6.138;2023-02-28T08:45:10;6.22;;;3.97;;
37645;SDS011;23489;49.600;6.138;2023-02-28T08:47:37;3.92;;;2.95;;
37645;SDS011;23489;49.600;6.138;2023-02-28T08:50:02;5.65;;;3.72;;
37645;SDS011;23489;49.600;6.138;2023-02-28T08:52:29;4.82;;;3.80;;
37645;SDS011;23489;49.600;6.138;2023-02-28T08:54:55;4.65;;;3.25;;
37645;SDS011;23489;49.600;6.138;2023-02-28T08:57:20;5.05;;;3.58;;
37645;SDS011;23489;49.600;6.138;2023-02-28T08:59:46;4.60;;;3.47;;
37645;SDS011;23489;49.600;6.138;2023-02-28T09:02:14;4.55;;;2.70;;
37645;SDS011;23489;49.600;6.138;2023-02-28T09:04:40;4.07;;;3.45;;
37645;SDS011;23489;49.600;6.138;2023-02-28T09:09:32;4.85;;;2.90;;
37645;SDS011;23489;49.600;6.138;2023-02-28T09:11:58;4.20;;;3.30;;
37645;SDS011;23489;49.600;6.138;2023-02-28T09:14:24;4.30;;;3.42;;
37645;SDS011;23489;49.600;6.138;2023-02-28T09:16:49;3.60;;;2.95;;
37645;SDS011;23489;49.600;6.138;2023-02-28T09:19:15;5.80;;;2.97;;
37645;SDS011;23489;49.600;6.138;2023-02-28T09:21:41;3.35;;;3.05;;
37645;SDS011;23489;49.600;6.138;2023-02-28T09:24:07;4.38;;;3.15;;
37645;SDS011;23489;49.600;6.138;2023-02-28T09:26:32;5.35;;;2.88;;
37645;SDS011;23489;49.600;6.138;2023-02-28T09:28:59;4.18;;;3.00;;
37645;SDS011;23489;49.600;6.138;2023-02-28T09:31:26;4.57;;;3.10;;
37645;SDS011;23489;49.600;6.138;2023-02-28T09:33:54;7.68;;;3.03;;
37645;SDS011;23489;49.600;6.138;2023-02-28T09:36:22;5.53;;;2.90;;
37645;SDS011;23489;49.600;6.138;2023-02-28T09:38:49;4.30;;;3.30;;
37645;SDS011;23489;49.600;6.138;2023-02-28T09:41:23;3.55;;;2.80;;
37645;SDS011;23489;49.600;6.138;2023-02-28T09:43:57;5.03;;;2.88;;
37645;SDS011;23489;49.600;6.138;2023-02-28T09:46:29;4.10;;;2.88;;
37645;SDS011;23489;49.600;6.138;2023-02-28T09:49:06;4.47;;;3.22;;
37645;SDS011;23489;49.600;6.138;2023-02-28T09:54:22;4.35;;;2.88;;
37645;SDS011;23489;49.600;6.138;2023-02-28T09:57:04;3.47;;;2.83;;
37645;SDS011;23489;49.600;6.138;2023-02-28T10:05:31;4.15;;;2.65;;
37645;SDS011;23489;49.600;6.138;2023-02-28T10:08:03;4.53;;;2.70;;
37645;SDS011;23489;49.600;6.138;2023-02-28T10:10:41;3.53;;;2.53;;
37645;SDS011;23489;49.600;6.138;2023-02-28T10:15:51;4.57;;;2.70;;
37645;SDS011;23489;49.600;6.138;2023-02-28T10:18:24;4.60;;;2.33;;
37645;SDS011;23489;49.600;6.138;2023-02-28T10:20:53;4.97;;;2.92;;
37645;SDS011;23489;49.600;6.138;2023-02-28T10:25:59;3.53;;;2.70;;
37645;SDS011;23489;49.600;6.138;2023-02-28T10:28:36;3.33;;;2.58;;
37645;SDS011;23489;49.600;6.138;2023-02-28T10:31:02;4.35;;;3.10;;
37645;SDS011;23489;49.600;6.138;2023-02-28T10:33:37;3.78;;;3.05;;
37645;SDS011;23489;49.600;6.138;2023-02-28T10:36:03;4.10;;;3.20;;
37645;SDS011;23489;49.600;6.138;2023-02-28T10:43:32;3.25;;;2.60;;
37645;SDS011;23489;49.600;6.138;2023-02-28T10:45:59;3.58;;;2.92;;
37645;SDS011;23489;49.600;6.138;2023-02-28T10:48:42;3.88;;;3.28;;
37645;SDS011;23489;49.600;6.138;2023-02-28T10:51:22;7.18;;;3.00;;
37645;SDS011;23489;49.600;6.138;2023-02-28T10:53:51;4.30;;;3.22;;
37645;SDS011;23489;49.600;6.138;2023-02-28T10:56:25;4.50;;;2.95;;
37645;SDS011;23489;49.600;6.138;2023-02-28T11:01:34;4.07;;;3.25;;
37645;SDS011;23489;49.600;6.138;2023-02-28T11:07:02;5.18;;;3.53;;
37645;SDS011;23489;49.600;6.138;2023-02-28T11:09:39;5.88;;;3.00;;
37645;SDS011;23489;49.600;6.138;2023-02-28T11:12:19;4.45;;;2.95;;
37645;SDS011;23489;49.600;6.138;2023-02-28T11:14:49;4.63;;;3.50;;
37645;SDS011;23489;49.600;6.138;2023-02-28T11:17:22;4.63;;;3.33;;
37645;SDS011;23489;49.600;6.138;2023-02-28T11:19:55;4.45;;;3.60;;
37645;SDS011;23489;49.600;6.138;2023-02-28T11:22:24;4.40;;;3.33;;
37645;SDS011;23489;49.600;6.138;2023-02-28T11:24:54;4.30;;;3.22;;
37645;SDS011;23489;49.600;6.138;2023-02-28T11:29:54;3.78;;;3.25;;
37645;SDS011;23489;49.600;6.138;2023-02-28T11:32:20;5.07;;;3.45;;
37645;SDS011;23489;49.600;6.138;2023-02-28T11:35:02;5.07;;;3.95;;
37645;SDS011;23489;49.600;6.138;2023-02-28T11:37:34;5.18;;;3.90;;
37645;SDS011;23489;49.600;6.138;2023-02-28T11:40:00;5.57;;;3.40;;
37645;SDS011;23489;49.600;6.138;2023-02-28T11:56:05;5.38;;;3.42;;
37645;SDS011;23489;49.600;6.138;2023-02-28T11:58:55;4.70;;;3.63;;
37645;SDS011;23489;49.600;6.138;2023-02-28T12:07:29;5.07;;;3.75;;
37645;SDS011;23489;49.600;6.138;2023-02-28T12:10:15;6.43;;;3.58;;
37645;SDS011;23489;49.600;6.138;2023-02-28T12:18:12;5.60;;;3.75;;
37645;SDS011;23489;49.600;6.138;2023-02-28T12:20:57;4.88;;;3.65;;
37645;SDS011;23489;49.600;6.138;2023-02-28T12:23:47;5.13;;;3.42;;
37645;SDS011;23489;49.600;6.138;2023-02-28T12:31:49;4.70;;;3.72;;
37645;SDS011;23489;49.600;6.138;2023-02-28T12:34:25;8.40;;;4.25;;
37645;SDS011;23489;49.600;6.138;2023-02-28T12:36:56;6.43;;;3.70;;
37645;SDS011;23489;49.600;6.138;2023-02-28T12:39:28;6.60;;;4.30;;
37645;SDS011;23489;49.600;6.138;2023-02-28T12:42:04;6.18;;;3.67;;
37645;SDS011;23489;49.600;6.138;2023-02-28T12:44:46;4.20;;;3.47;;
37645;SDS011;23489;49.600;6.138;2023-02-28T12:47:17;6.90;;;3.85;;
37645;SDS011;23489;49.600;6.138;2023-02-28T12:52:16;5.95;;;3.60;;
37645;SDS011;23489;49.600;6.138;2023-02-28T12:54:52;6.15;;;3.70;;
37645;SDS011;23489;49.600;6.138;2023-02-28T12:57:31;6.85;;;3.55;;
37645;SDS011;23489;49.600;6.138;2023-02-28T13:00:20;5.20;;;4.00;;
37645;SDS011;23489;49.600;6.138;2023-02-28T13:05:44;8.35;;;4.18;;
37645;SDS011;23489;49.600;6.138;2023-02-28T13:11:29;7.45;;;3.97;;
37645;SDS011;23489;49.600;6.138;2023-02-28T13:14:00;6.80;;;4.28;;
37645;SDS011;23489;49.600;6.138;2023-02-28T13:16:27;5.50;;;3.95;;
37645;SDS011;23489;49.600;6.138;2023-02-28T13:19:16;4.55;;;3.55;;
37645;SDS011;23489;49.600;6.138;2023-02-28T13:21:43;8.30;;;4.43;;
37645;SDS011;23489;49.600;6.138;2023-02-28T13:24:10;5.88;;;4.30;;
37645;SDS011;23489;49.600;6.138;2023-02-28T13:34:31;5.63;;;3.85;;
37645;SDS011;23489;49.600;6.138;2023-02-28T13:50:20;7.50;;;4.13;;
37645;SDS011;23489;49.600;6.138;2023-02-28T13:58:32;5.38;;;3.65;;
37645;SDS011;23489;49.600;6.138;2023-02-28T14:07:04;7.50;;;4.25;;
37645;SDS011;23489;49.600;6.138;2023-02-28T14:09:38;4.60;;;3.55;;
37645;SDS011;23489;49.600;6.138;2023-02-28T14:17:59;6.50;;;3.70;;
37645;SDS011;23489;49.600;6.138;2023-02-28T14:20:30;8.05;;;3.70;;
37645;SDS011;23489;49.600;6.138;2023-02-28T14:25:36;6.25;;;3.75;;
37645;SDS011;23489;49.600;6.138;2023-02-28T14:28:14;6.55;;;3.92;;
37645;SDS011;23489;49.600;6.138;2023-02-28T14:30:53;6.20;;;3.80;;
37645;SDS011;23489;49.600;6.138;2023-02-28T14:36:35;5.80;;;4.00;;
37645;SDS011;23489;49.600;6.138;2023-02-28T14:39:06;4.55;;;3.80;;
37645;SDS011;23489;49.600;6.138;2023-02-28T14:41:38;4.43;;;3.60;;
37645;SDS011;23489;49.600;6.138;2023-02-28T14:46:48;6.20;;;4.05;;
37645;SDS011;23489;49.600;6.138;2023-02-28T14:49:29;5.55;;;3.85;;
37645;SDS011;23489;49.600;6.138;2023-02-28T14:54:46;6.60;;;3.72;;
37645;SDS011;23489;49.600;6.138;2023-02-28T14:57:21;7.53;;;4.15;;
37645;SDS011;23489;49.600;6.138;2023-02-28T15:00:12;5.35;;;4.00;;
37645;SDS011;23489;49.600;6.138;2023-02-28T15:02:41;5.80;;;3.92;;
37645;SDS011;23489;49.600;6.138;2023-02-28T15:07:45;6.50;;;4.28;;
37645;SDS011;23489;49.600;6.138;2023-02-28T15:12:52;5.00;;;4.22;;
37645;SDS011;23489;49.600;6.138;2023-02-28T15:15:22;5.43;;;3.95;;
37645;SDS011;23489;49.600;6.138;2023-02-28T15:18:12;6.35;;;4.00;;
37645;SDS011;23489;49.600;6.138;2023-02-28T15:20:43;10.18;;;4.13;;
37645;SDS011;23489;49.600;6.138;2023-02-28T15:23:09;6.43;;;4.00;;
37645;SDS011;23489;49.600;6.138;2023-02-28T15:25:36;6.15;;;4.65;;
37645;SDS011;23489;49.600;6.138;2023-02-28T15:28:04;7.63;;;4.32;;
37645;SDS011;23489;49.600;6.138;2023-02-28T15:30:30;5.75;;;4.00;;
37645;SDS011;23489;49.600;6.138;2023-02-28T15:35:43;4.30;;;3.80;;
37645;SDS011;23489;49.600;6.138;2023-02-28T15:38:15;7.60;;;3.85;;
37645;SDS011;23489;49.600;6.138;2023-02-28T15:40:55;4.15;;;3.58;;
37645;SDS011;23489;49.600;6.138;2023-02-28T15:46:01;5.38;;;3.88;;
37645;SDS011;23489;49.600;6.138;2023-02-28T15:51:01;5.93;;;4.07;;
37645;SDS011;23489;49.600;6.138;2023-02-28T15:53:35;6.05;;;4.32;;
37645;SDS011;23489;49.600;6.138;2023-02-28T15:56:12;5.57;;;3.70;;
37645;SDS011;23489;49.600;6.138;2023-02-28T15:58:55;4.75;;;3.78;;
37645;SDS011;23489;49.600;6.138;2023-02-28T16:01:27;7.00;;;4.13;;
37645;SDS011;23489;49.600;6.138;2023-02-28T16:03:56;5.88;;;4.18;;
37645;SDS011;23489;49.600;6.138;2023-02-28T16:06:44;5.65;;;4.32;;
37645;SDS011;23489;49.600;6.138;2023-02-28T16:09:12;6.60;;;4.50;;
37645;SDS011;23489;49.600;6.138;2023-02-28T16:11:42;6.05;;;4.00;;
37645;SDS011;23489;49.600;6.138;2023-02-28T16:14:23;9.63;;;5.60;;
37645;SDS011;23489;49.600;6.138;2023-02-28T16:16:53;5.47;;;4.00;;
37645;SDS011;23489;49.600;6.138;2023-02-28T16:19:21;5.82;;;3.75;;
37645;SDS011;23489;49.600;6.138;2023-02-28T16:21:48;5.80;;;4.32;;
37645;SDS011;23489;49.600;6.138;2023-02-28T16:24:14;6.18;;;4.28;;
37645;SDS011;23489;49.600;6.138;2023-02-28T16:26:40;7.38;;;4.38;;
37645;SDS011;23489;49.600;6.138;2023-02-28T16:29:11;5.50;;;3.92;;
37645;SDS011;23489;49.600;6.138;2023-02-28T16:31:43;6.35;;;4.25;;
37645;SDS011;23489;49.600;6.138;2023-02-28T16:34:09;6.35;;;4.25;;
37645;SDS011;23489;49.600;6.138;2023-02-28T16:36:34;5.22;;;3.80;;
37645;SDS011;23489;49.600;6.138;2023-02-28T16:39:00;6.68;;;3.80;;
37645;SDS011;23489;49.600;6.138;2023-02-28T16:41:27;6.75;;;3.88;;
37645;SDS011;23489;49.600;6.138;2023-02-28T16:43:54;5.63;;;3.78;;
37645;SDS011;23489;49.600;6.138;2023-02-28T16:46:30;9.38;;;4.35;;
37645;SDS011;23489;49.600;6.138;2023-02-28T16:48:58;6.32;;;4.07;;
37645;SDS011;23489;49.600;6.138;2023-02-28T16:51:23;6.10;;;3.80;;
37645;SDS011;23489;49.600;6.138;2023-02-28T16:53:49;4.68;;;3.65;;
37645;SDS011;23489;49.600;6.138;2023-02-28T16:56:16;5.88;;;4.28;;
37645;SDS011;23489;49.600;6.138;2023-02-28T16:58:44;6.35;;;4.35;;
37645;SDS011;23489;49.600;6.138;2023-02-28T17:01:09;5.70;;;4.45;;
37645;SDS011;23489;49.600;6.138;2023-02-28T17:03:35;7.03;;;4.53;;
37645;SDS011;23489;49.600;6.138;2023-02-28T17:06:02;6.27;;;4.37;;
37645;SDS011;23489;49.600;6.138;2023-02-28T17:08:28;6.38;;;4.22;;
37645;SDS011;23489;49.600;6.138;2023-02-28T17:10:56;6.63;;;4.25;;
37645;SDS011;23489;49.600;6.138;2023-02-28T17:13:22;7.67;;;4.50;;
37645;SDS011;23489;49.600;6.138;2023-02-28T17:15:48;8.00;;;4.68;;
37645;SDS011;23489;49.600;6.138;2023-02-28T17:18:15;6.10;;;4.38;;
37645;SDS011;23489;49.600;6.138;2023-02-28T17:20:53;6.55;;;4.18;;
37645;SDS011;23489;49.600;6.138;2023-02-28T17:23:19;6.07;;;4.47;;
37645;SDS011;23489;49.600;6.138;2023-02-28T17:25:45;6.25;;;4.22;;
37645;SDS011;23489;49.600;6.138;2023-02-28T17:28:18;6.90;;;4.57;;
37645;SDS011;23489;49.600;6.138;2023-02-28T17:30:46;5.65;;;4.25;;
37645;SDS011;23489;49.600;6.138;2023-02-28T17:33:12;6.57;;;4.43;;
37645;SDS011;23489;49.600;6.138;2023-02-28T17:35:38;5.82;;;4.05;;
37645;SDS011;23489;49.600;6.138;2023-02-28T17:38:03;6.85;;;4.55;;
37645;SDS011;23489;49.600;6.138;2023-02-28T17:40:29;6.13;;;4.32;;
37645;SDS011;23489;49.600;6.138;2023-02-28T17:42:55;6.65;;;4.43;;
37645;SDS011;23489;49.600;6.138;2023-02-28T17:45:21;6.22;;;4.28;;
37645;SDS011;23489;49.600;6.138;2023-02-28T17:47:48;7.80;;;4.60;;
37645;SDS011;23489;49.600;6.138;2023-02-28T17:50:19;6.60;;;4.30;;